Time;durP1;ratioP1;P1;durP2;ratioP2;P2;SDS_P1;SDS_P2;PMS_P1;PMS_P2;Temp;Humidity;BMP_temperature;BMP_pressure;BME280_temperature;BME280_humidity;BME280_pressure;Samples;Min_cycle;Max_cycle;Signal;HPM_P1;HPM_P2
2023/03/21 00:03:58;;;;;;;4.68;1.90;;;;;;;12.42;54.59;100558.22;12845690;23;20111;-66
2023/03/21 00:09:00;;;;;;;7.45;2.08;;;;;;;12.37;54.73;100557.94;12821232;23;20024;-65
2023/03/21 00:14:01;;;;;;;4.13;2.08;;;;;;;12.43;54.66;100545.59;12819130;23;20477;-65
2023/03/21 00:19:05;;;;;;;5.85;2.13;;;;;;;12.40;54.78;100551.31;12844493;23;20107;-66
2023/03/21 00:24:06;;;;;;;3.80;1.77;;;;;;;12.50;54.80;100535.75;12843264;23;20079;-66
2023/03/21 00:29:08;;;;;;;7.05;1.90;;;;;;;12.62;54.59;100538.84;12845100;23;20156;-64
2023/03/21 00:34:09;;;;;;;9.25;2.15;;;;;;;12.67;54.20;100533.69;12839753;23;20037;-65
2023/03/21 00:39:14;;;;;;;4.53;1.52;;;;;;;12.61;54.74;100532.56;12844940;23;20483;-66
2023/03/21 00:44:16;;;;;;;6.63;1.88;;;;;;;12.56;55.09;100520.66;12820867;23;20092;-63
2023/03/21 00:49:19;;;;;;;4.40;1.77;;;;;;;12.39;55.78;100520.00;12844088;23;20025;-63
2023/03/21 00:54:21;;;;;;;6.72;1.88;;;;;;;12.32;55.57;100525.28;12842161;23;20345;-65
2023/03/21 00:59:22;;;;;;;4.53;1.70;;;;;;;12.18;56.44;100516.16;12841705;23;20090;-64
2023/03/21 01:04:25;;;;;;;5.68;2.15;;;;;;;12.16;56.37;100510.09;12843798;23;20095;-64
2023/03/21 01:09:27;;;;;;;4.78;1.90;;;;;;;12.06;56.15;100509.53;12851382;23;20079;-63
2023/03/21 01:14:28;;;;;;;4.93;1.83;;;;;;;12.03;56.60;100502.66;12844832;23;20039;-63
2023/03/21 01:19:30;;;;;;;5.88;1.67;;;;;;;11.94;56.65;100508.28;12842953;23;20093;-62
2023/03/21 01:24:50;;;;;;;2.78;1.60;;;;;;;11.89;56.45;100503.44;12843171;23;20024;-64
2023/03/21 01:30:04;;;;;;;6.53;1.90;;;;;;;11.93;56.59;100501.22;12844044;23;20020;-63
2023/03/21 01:35:17;;;;;;;7.50;2.17;;;;;;;11.95;56.46;100504.56;12842039;23;20024;-63
2023/03/21 01:40:23;;;;;;;7.75;2.55;;;;;;;11.92;56.60;100494.16;12843016;23;20025;-63
2023/03/21 01:46:20;;;;;;;3.90;1.92;;;;;;;11.83;57.20;100493.38;12844436;23;20067;-67
2023/03/21 01:51:22;;;;;;;4.03;2.28;;;;;;;11.79;56.96;100483.94;12712027;23;20124;-66
2023/03/21 01:56:29;;;;;;;6.95;2.40;;;;;;;11.77;57.43;100483.28;12845869;23;20039;-65
2023/03/21 02:01:33;;;;;;;4.73;1.70;;;;;;;11.76;56.97;100487.03;12842404;23;20352;-63
2023/03/21 02:07:16;;;;;;;5.97;1.75;;;;;;;11.74;56.95;100487.19;12844238;23;20252;-64
2023/03/21 02:12:18;;;;;;;5.65;1.65;;;;;;;11.71;57.37;100474.13;12699492;23;20028;-62
2023/03/21 02:17:34;;;;;;;5.25;2.95;;;;;;;11.67;57.85;100470.06;12843842;23;20031;-62
2023/03/21 02:22:36;;;;;;;8.48;3.42;;;;;;;11.65;57.95;100467.59;12839972;23;20024;-64
2023/03/21 02:27:47;;;;;;;4.63;2.25;;;;;;;11.57;58.15;100464.97;12842313;23;20442;-62
2023/03/21 02:32:49;;;;;;;6.35;2.65;;;;;;;11.55;58.00;100460.75;12841766;23;20024;-62
2023/03/21 02:37:57;;;;;;;4.70;2.53;;;;;;;11.54;58.34;100459.09;12841193;23;20051;-63
2023/03/21 02:43:10;;;;;;;5.32;3.22;;;;;;;11.52;58.46;100457.41;12843557;23;20331;-65
2023/03/21 02:49:11;;;;;;;5.18;3.80;;;;;;;11.45;58.64;100445.69;12844368;23;20024;-65
2023/03/21 02:54:17;;;;;;;6.13;3.85;;;;;;;11.41;58.81;100448.91;12845000;23;20020;-67
2023/03/21 02:59:40;;;;;;;5.10;3.08;;;;;;;11.36;58.88;100448.63;12797221;23;20028;-66
2023/03/21 03:04:54;;;;;;;10.90;3.30;;;;;;;11.35;59.31;100449.63;12843564;23;20421;-63
2023/03/21 03:10:06;;;;;;;9.27;3.63;;;;;;;11.37;59.47;100442.22;12823778;23;20099;-63
2023/03/21 03:15:17;;;;;;;5.10;3.28;;;;;;;11.41;59.56;100443.53;12842731;23;20021;-63
2023/03/21 03:20:29;;;;;;;7.65;3.60;;;;;;;11.40;59.41;100449.94;12841230;23;20028;-65
2023/03/21 03:25:41;;;;;;;6.93;2.70;;;;;;;11.34;59.82;100447.97;12814987;23;20024;-63
2023/03/21 03:30:46;;;;;;;8.45;3.05;;;;;;;11.23;60.12;100446.50;12842620;23;20804;-64
2023/03/21 03:36:10;;;;;;;16.50;6.45;;;;;;;11.15;59.92;100439.31;12823180;23;20021;-62
2023/03/21 03:41:27;;;;;;;11.40;6.10;;;;;;;11.08;60.18;100435.69;12848080;23;20107;-63
2023/03/21 03:46:46;;;;;;;11.95;4.18;;;;;;;11.01;60.36;100427.47;12848522;23;20025;-64
2023/03/21 03:51:55;;;;;;;7.75;4.05;;;;;;;10.90;60.38;100431.41;12848809;23;20032;-62
2023/03/21 03:56:57;;;;;;;9.63;3.50;;;;;;;10.86;60.42;100430.09;12848869;23;20028;-64
2023/03/21 04:01:58;;;;;;;6.38;3.08;;;;;;;10.86;60.65;100431.91;12848538;23;20035;-64
2023/03/21 04:07:02;;;;;;;8.95;3.60;;;;;;;10.83;60.79;100430.41;12847736;23;20028;-62
2023/03/21 04:12:03;;;;;;;6.75;3.33;;;;;;;10.82;60.97;100428.75;12845764;23;20059;-63
2023/03/21 04:17:05;;;;;;;7.18;3.53;;;;;;;10.83;60.69;100429.59;12847388;23;20088;-65
2023/03/21 04:22:07;;;;;;;7.57;3.60;;;;;;;10.84;60.95;100420.50;12847081;23;20334;-63
2023/03/21 04:27:08;;;;;;;6.47;4.13;;;;;;;10.87;60.92;100414.78;12847264;23;20079;-62
2023/03/21 04:32:15;;;;;;;8.23;4.13;;;;;;;10.88;61.23;100416.44;12843565;23;20024;-64
2023/03/21 04:37:17;;;;;;;8.00;3.85;;;;;;;10.91;61.01;100416.09;12846635;23;20533;-63
2023/03/21 04:42:19;;;;;;;8.13;3.88;;;;;;;10.97;60.70;100409.19;12845805;23;20020;-62
2023/03/21 04:47:20;;;;;;;11.38;3.30;;;;;;;11.07;60.44;100412.47;12821100;23;20469;-71
2023/03/21 04:52:22;;;;;;;7.20;3.33;;;;;;;11.15;60.16;100401.66;12847347;23;20024;-71
2023/03/21 04:57:25;;;;;;;7.00;3.20;;;;;;;11.04;60.61;100418.22;12855722;23;20099;-71
2023/03/21 05:02:27;;;;;;;7.68;3.50;;;;;;;10.99;60.68;100413.34;12847698;23;20028;-69
2023/03/21 05:07:30;;;;;;;11.25;3.65;;;;;;;10.87;60.80;100420.16;12848477;23;20024;-69
2023/03/21 05:12:31;;;;;;;11.02;3.17;;;;;;;10.82;60.46;100418.00;12847096;23;20023;-72
2023/03/21 05:17:33;;;;;;;6.93;2.85;;;;;;;10.89;60.52;100418.94;12847849;23;20028;-71
2023/03/21 05:22:39;;;;;;;5.38;3.13;;;;;;;10.87;60.08;100412.91;12846400;23;20024;-70
2023/03/21 05:27:44;;;;;;;6.10;3.13;;;;;;;10.86;60.01;100403.19;12871875;23;20032;-66
2023/03/21 05:32:46;;;;;;;7.45;3.58;;;;;;;10.87;59.86;100406.72;12843802;23;20017;-65
2023/03/21 05:37:47;;;;;;;8.45;4.57;;;;;;;10.84;60.04;100397.16;12844103;23;20094;-68
2023/03/21 05:42:49;;;;;;;6.95;3.03;;;;;;;10.83;60.03;100405.38;12870815;23;20109;-67
2023/03/21 05:47:50;;;;;;;7.20;2.95;;;;;;;10.78;60.00;100405.94;12837770;23;20024;-67
2023/03/21 05:52:52;;;;;;;9.07;3.72;;;;;;;10.78;59.88;100397.00;12896072;23;20032;-66
2023/03/21 05:57:53;;;;;;;10.32;4.15;;;;;;;10.78;59.54;100394.31;12893882;23;20044;-67
2023/03/21 06:02:54;;;;;;;8.57;3.30;;;;;;;10.82;59.67;100396.50;12915742;23;20048;-66
2023/03/21 06:07:56;;;;;;;12.50;4.28;;;;;;;10.83;59.97;100400.00;12870881;23;20024;-67
2023/03/21 06:12:57;;;;;;;7.03;3.90;;;;;;;10.91;59.37;100398.09;12847877;23;20033;-64
2023/03/21 06:17:59;;;;;;;9.68;3.72;;;;;;;10.92;59.46;100409.72;12857410;23;20098;-63
2023/03/21 06:23:00;;;;;;;9.63;3.97;;;;;;;10.96;59.49;100412.88;12851777;23;20055;-62
2023/03/21 06:28:02;;;;;;;13.25;4.55;;;;;;;10.95;59.91;100417.41;12829546;23;20079;-63
2023/03/21 06:33:03;;;;;;;6.45;4.32;;;;;;;10.96;59.46;100416.41;12848287;23;20338;-63
2023/03/21 06:38:04;;;;;;;8.77;3.97;;;;;;;11.12;59.60;100418.16;12848460;23;20028;-64
2023/03/21 06:43:06;;;;;;;11.68;4.55;;;;;;;11.25;59.73;100414.88;12848401;23;20545;-64
2023/03/21 06:48:07;;;;;;;8.63;4.15;;;;;;;11.44;59.14;100409.00;12847130;23;20477;-65
2023/03/21 06:53:09;;;;;;;11.07;4.25;;;;;;;11.65;59.05;100407.50;12857733;23;20094;-63
2023/03/21 06:58:11;;;;;;;10.93;3.75;;;;;;;11.84;58.92;100404.28;12855398;23;20028;-66
2023/03/21 07:03:13;;;;;;;8.27;4.25;;;;;;;11.98;58.84;100412.63;12823550;23;20035;-65
2023/03/21 07:08:14;;;;;;;18.23;4.70;;;;;;;12.12;58.60;100413.66;12828717;23;20091;-70
2023/03/21 07:13:16;;;;;;;7.88;4.50;;;;;;;12.17;58.56;100405.88;12806831;23;20032;-71
2023/03/21 07:18:17;;;;;;;11.18;5.10;;;;;;;12.34;58.27;100411.88;12865560;23;20087;-70
2023/03/21 07:23:21;;;;;;;9.23;4.22;;;;;;;12.54;58.38;100412.16;12807193;23;20457;-71
2023/03/21 07:28:23;;;;;;;10.48;3.97;;;;;;;12.79;57.72;100421.59;12830323;23;20028;-69
2023/03/21 07:33:25;;;;;;;11.93;4.05;;;;;;;13.08;57.63;100418.00;12861448;23;20083;-70
2023/03/21 07:38:27;;;;;;;10.68;4.50;;;;;;;13.23;57.20;100411.72;12831329;23;20618;-70
2023/03/21 07:43:28;;;;;;;9.00;4.60;;;;;;;13.43;56.73;100417.38;12830187;23;20032;-69
2023/03/21 07:48:30;;;;;;;10.95;4.15;;;;;;;13.63;56.18;100421.09;12828051;23;20036;-69
2023/03/21 07:53:32;;;;;;;9.93;4.20;;;;;;;13.66;55.92;100423.41;12856229;23;20108;-69
2023/03/21 07:58:33;;;;;;;9.05;3.78;;;;;;;13.84;55.41;100416.66;12828727;23;20412;-69
2023/03/21 08:03:35;;;;;;;11.90;4.38;;;;;;;13.98;55.26;100410.34;12806191;23;20032;-70
2023/03/21 08:08:36;;;;;;;11.07;4.65;;;;;;;14.11;54.88;100414.19;12867138;23;20651;-68
2023/03/21 08:13:39;;;;;;;10.98;4.82;;;;;;;13.93;55.10;100412.81;12858181;23;20020;-70
2023/03/21 08:18:41;;;;;;;13.43;3.75;;;;;;;13.99;54.85;100405.78;12828959;23;20039;-69
2023/03/21 08:23:43;;;;;;;6.70;3.85;;;;;;;14.11;54.71;100400.66;12831420;23;20024;-69
2023/03/21 08:28:45;;;;;;;14.88;4.90;;;;;;;14.08;54.53;100407.31;12806757;23;20024;-70
2023/03/21 08:33:49;;;;;;;12.52;3.60;;;;;;;14.31;54.21;100404.31;12858976;23;20024;-70
2023/03/21 08:38:55;;;;;;;8.85;3.42;;;;;;;14.67;53.46;100406.84;12859394;23;20024;-69
2023/03/21 08:43:57;;;;;;;9.40;3.83;;;;;;;14.66;53.48;100415.16;12808121;23;20021;-68
2023/03/21 08:48:58;;;;;;;11.15;3.90;;;;;;;14.69;53.61;100406.59;12863715;23;20029;-68
2023/03/21 08:54:00;;;;;;;12.25;4.47;;;;;;;14.68;53.67;100413.06;12831361;23;20032;-69
2023/03/21 08:59:01;;;;;;;13.30;4.40;;;;;;;14.55;53.81;100407.56;12855346;23;20389;-69
2023/03/21 09:04:06;;;;;;;6.70;3.17;;;;;;;14.70;53.51;100416.41;12805906;23;20059;-69
2023/03/21 09:09:08;;;;;;;11.05;3.50;;;;;;;14.66;53.58;100413.28;12831071;23;20028;-68
2023/03/21 09:14:10;;;;;;;8.32;3.40;;;;;;;14.70;53.19;100413.72;12796620;23;20366;-69
2023/03/21 09:19:12;;;;;;;9.23;3.47;;;;;;;14.72;53.08;100410.81;12819517;23;20767;-69
2023/03/21 09:24:14;;;;;;;7.93;4.00;;;;;;;14.80;52.59;100406.03;12847998;23;20025;-69
2023/03/21 09:29:18;;;;;;;11.95;3.40;;;;;;;14.88;52.28;100411.28;12848223;23;20024;-69
2023/03/21 09:34:20;;;;;;;13.73;3.47;;;;;;;15.05;51.74;100409.03;12845645;23;20079;-69
2023/03/21 09:39:22;;;;;;;9.35;3.45;;;;;;;15.13;51.22;100408.03;12845094;23;20358;-69
2023/03/21 09:44:36;;;;;;;7.25;3.17;;;;;;;15.03;50.89;100413.00;12845575;23;20028;-69
2023/03/21 09:49:43;;;;;;;10.27;3.67;;;;;;;15.07;50.81;100409.69;12843462;23;20025;-69
2023/03/21 09:54:45;;;;;;;9.65;3.13;;;;;;;15.00;50.68;100411.53;12844385;23;20025;-70
2023/03/21 09:59:49;;;;;;;8.95;2.90;;;;;;;14.88;50.83;100405.84;12854770;23;20021;-69
2023/03/21 10:04:51;;;;;;;9.05;3.42;;;;;;;15.05;50.64;100409.03;12844144;23;20492;-70
2023/03/21 10:09:54;;;;;;;10.05;2.95;;;;;;;15.24;50.34;100402.03;12841931;23;20476;-69
2023/03/21 10:14:59;;;;;;;8.10;3.15;;;;;;;15.30;49.92;100392.22;12828847;23;20438;-69
2023/03/21 10:20:21;;;;;;;10.00;2.97;;;;;;;15.34;49.73;100390.75;12820801;23;20588;-66
2023/03/21 10:25:35;;;;;;;7.38;3.60;;;;;;;15.32;49.58;100390.13;12845047;23;20079;-67
2023/03/21 10:30:47;;;;;;;11.40;3.70;;;;;;;15.36;49.44;100388.69;12845516;23;20055;-67
2023/03/21 10:35:52;;;;;;;13.38;4.03;;;;;;;15.39;49.62;100390.16;12846465;23;20027;-66
2023/03/21 10:40:54;;;;;;;13.48;3.00;;;;;;;15.49;49.57;100392.47;12850816;23;20024;-67
2023/03/21 10:45:56;;;;;;;8.77;3.15;;;;;;;15.41;49.96;100394.31;12845599;23;20025;-66
2023/03/21 10:50:58;;;;;;;7.38;2.72;;;;;;;15.37;50.23;100387.66;12842033;23;20067;-67
2023/03/21 10:56:01;;;;;;;6.53;2.92;;;;;;;15.22;51.31;100384.28;12845733;23;20051;-67
2023/03/21 11:01:05;;;;;;;8.57;3.45;;;;;;;15.00;52.34;100402.56;12844828;23;20402;-66
2023/03/21 11:06:13;;;;;;;11.90;3.95;;;;;;;13.94;55.79;100409.09;12845921;23;20031;-65
2023/03/21 11:11:26;;;;;;;;;;;;;;;13.33;57.46;100412.28;12846019;23;20349;-69
2023/03/21 11:16:37;;;;;;;11.40;4.43;;;;;;;12.96;60.30;100411.44;12892894;23;19904;-67
2023/03/21 11:21:41;;;;;;;10.07;4.45;;;;;;;12.71;61.37;100405.53;12874245;23;20182;-61
2023/03/21 11:26:46;;;;;;;9.10;4.60;;;;;;;12.40;62.98;100401.22;12825070;23;20036;-67
2023/03/21 11:31:48;;;;;;;9.80;4.90;;;;;;;12.40;63.47;100403.06;12826683;23;20036;-67
2023/03/21 11:36:50;;;;;;;10.45;4.55;;;;;;;12.16;64.98;100404.19;12889183;23;20031;-67
2023/03/21 11:41:51;;;;;;;20.90;5.07;;;;;;;11.98;65.34;100405.38;12820176;23;20033;-68
2023/03/21 11:46:53;;;;;;;11.85;5.28;;;;;;;11.96;65.70;100391.25;12800130;23;20091;-67
2023/03/21 11:52:29;;;;;;;11.00;6.32;;;;;;;12.10;66.02;100389.56;12788145;23;20025;-66
2023/03/21 11:58:14;;;;;;;12.60;5.43;;;;;;;11.84;68.12;100385.44;12792772;23;20068;-65
2023/03/21 12:03:27;;;;;;;10.02;5.13;;;;;;;11.69;68.83;100385.41;12521282;23;20435;-66
2023/03/21 12:09:03;;;;;;;10.50;4.95;;;;;;;11.70;69.00;100380.88;12752739;23;20346;-66
2023/03/21 12:14:13;;;;;;;10.10;4.55;;;;;;;11.83;69.16;100377.56;12785991;23;20024;-66
2023/03/21 12:19:25;;;;;;;10.23;4.32;;;;;;;11.67;70.40;100368.63;12785222;23;20510;-65
2023/03/21 12:24:47;;;;;;;10.45;4.57;;;;;;;11.98;69.60;100356.88;12785891;23;20040;-66
2023/03/21 12:30:09;;;;;;;10.68;4.30;;;;;;;12.02;69.82;100354.66;12785377;23;20056;-60
2023/03/21 12:35:18;;;;;;;13.15;4.38;;;;;;;12.15;69.97;100343.22;12787234;23;20529;-60
2023/03/21 12:40:53;;;;;;;8.73;5.25;;;;;;;12.40;69.64;100330.28;12821909;23;20063;-62
2023/03/21 12:46:00;;;;;;;10.77;4.72;;;;;;;12.43;69.12;100325.34;12846922;23;20024;-59
2023/03/21 12:51:07;;;;;;;11.20;5.47;;;;;;;12.67;68.84;100315.25;12846228;23;20017;-60
2023/03/21 12:56:15;;;;;;;11.95;5.07;;;;;;;12.66;68.77;100317.13;12848503;23;20462;-59
2023/03/21 13:01:20;;;;;;;8.57;5.03;;;;;;;12.78;69.09;100312.06;12845616;23;20091;-61
2023/03/21 13:06:26;;;;;;;11.52;5.28;;;;;;;12.77;68.98;100309.53;12847607;23;20507;-61
2023/03/21 13:11:30;;;;;;;17.05;6.50;;;;;;;12.84;69.02;100302.38;12848265;23;20020;-61
2023/03/21 13:16:40;;;;;;;12.35;6.13;;;;;;;12.75;69.13;100303.50;12847599;23;20029;-62
2023/03/21 13:22:04;;;;;;;20.38;7.88;;;;;;;12.68;69.76;100295.34;12846762;23;20016;-61
2023/03/21 13:27:15;;;;;;;17.50;7.35;;;;;;;12.71;69.75;100294.97;12852067;23;20029;-61
2023/03/21 13:32:30;;;;;;;18.75;8.30;;;;;;;12.61;70.41;100292.56;12850722;23;20033;-63
2023/03/21 13:37:37;;;;;;;15.02;7.57;;;;;;;12.66;70.45;100286.63;12848290;23;20461;-60
2023/03/21 13:42:47;;;;;;;17.73;8.43;;;;;;;12.69;70.12;100278.97;12849202;23;20024;-62
2023/03/21 13:48:24;;;;;;;18.85;8.13;;;;;;;12.85;69.98;100283.25;12820702;23;20021;-61
2023/03/21 13:53:30;;;;;;;14.20;6.93;;;;;;;12.68;70.94;100273.78;12819915;23;20025;-60
2023/03/21 13:58:33;;;;;;;11.98;6.22;;;;;;;12.59;71.09;100274.91;12847658;23;20036;-60
2023/03/21 14:03:35;;;;;;;14.07;5.43;;;;;;;12.55;71.27;100263.66;12848070;23;20028;-61
2023/03/21 14:08:40;;;;;;;12.63;6.50;;;;;;;12.47;71.13;100256.53;12846297;23;20031;-60
2023/03/21 14:13:42;;;;;;;13.98;6.82;;;;;;;12.45;71.55;100252.38;12848587;23;20020;-57
2023/03/21 14:19:01;;;;;;;10.35;5.78;;;;;;;12.47;71.62;100251.16;12845213;23;20096;-60
2023/03/21 14:24:11;;;;;;;14.65;6.93;;;;;;;12.34;72.39;100242.91;12848191;23;20020;-57
2023/03/21 14:29:29;;;;;;;18.27;7.70;;;;;;;12.56;72.13;100229.44;12846901;23;20373;-60
2023/03/21 14:34:34;;;;;;;15.82;8.52;;;;;;;12.77;72.56;100218.66;12845883;23;20029;-57
2023/03/21 14:39:36;;;;;;;14.50;7.05;;;;;;;12.79;72.43;100222.00;12822414;23;20354;-63
2023/03/21 14:44:40;;;;;;;15.85;6.43;;;;;;;12.52;73.73;100217.38;12851109;23;20465;-61
2023/03/21 14:49:56;;;;;;;10.20;4.47;;;;;;;12.30;73.61;100214.66;12859567;23;20024;-62
2023/03/21 14:54:59;;;;;;;13.80;5.93;;;;;;;12.32;73.64;100201.81;12849946;23;20035;-62
2023/03/21 15:00:11;;;;;;;12.02;5.30;;;;;;;12.38;73.31;100208.31;12849314;23;20080;-62
2023/03/21 15:05:22;;;;;;;10.40;5.32;;;;;;;12.35;73.26;100219.50;12855927;23;20335;-62
2023/03/21 15:10:26;;;;;;;17.45;6.82;;;;;;;12.32;73.32;100201.00;12851236;23;20032;-64
2023/03/21 15:15:30;;;;;;;14.93;8.60;;;;;;;12.37;73.45;100199.41;12849966;23;20032;-62
2023/03/21 15:20:35;;;;;;;14.38;6.50;;;;;;;12.30;73.88;100198.50;12848150;23;20079;-61
2023/03/21 15:25:37;;;;;;;14.52;6.68;;;;;;;12.19;74.31;100217.88;12835900;23;20060;-61
2023/03/21 15:30:47;;;;;;;11.50;5.72;;;;;;;12.33;74.53;100194.59;12863795;23;20020;-61
2023/03/21 15:35:52;;;;;;;12.73;5.28;;;;;;;12.32;74.68;100190.22;12864009;23;20055;-61
2023/03/21 15:41:25;;;;;;;12.00;5.57;;;;;;;12.36;74.29;100168.09;12858762;23;20037;-62
2023/03/21 15:46:40;;;;;;;12.07;5.28;;;;;;;12.46;73.75;100173.13;12858058;23;20028;-63
2023/03/21 15:51:51;;;;;;;15.17;6.40;;;;;;;12.51;74.20;100168.03;12856310;23;20617;-61
2023/03/21 15:56:54;;;;;;;16.48;5.80;;;;;;;12.47;74.35;100174.81;12851849;23;20114;-61
2023/03/21 16:01:56;;;;;;;14.73;6.35;;;;;;;12.61;74.09;100179.31;12849626;23;20028;-63
2023/03/21 16:07:14;;;;;;;9.85;5.45;;;;;;;12.69;73.45;100179.16;12848019;23;20082;-62
2023/03/21 16:12:16;;;;;;;11.05;6.03;;;;;;;12.64;73.44;100168.16;12845950;23;20209;-62
2023/03/21 16:17:36;;;;;;;13.02;5.53;;;;;;;12.74;73.40;100161.56;12849031;23;20021;-62
2023/03/21 16:22:37;;;;;;;9.48;6.18;;;;;;;12.76;73.61;100154.97;12845446;23;20662;-64
2023/03/21 16:27:39;;;;;;;16.23;7.50;;;;;;;12.93;73.50;100154.69;12847086;23;20036;-62
2023/03/21 16:32:40;;;;;;;11.98;6.15;;;;;;;12.89;73.40;100162.31;12844432;23;20533;-63
2023/03/21 16:37:42;;;;;;;15.00;6.95;;;;;;;12.73;73.94;100158.03;12846598;23;20024;-64
2023/03/21 16:42:44;;;;;;;15.60;7.25;;;;;;;12.85;73.68;100156.47;12847714;23;20029;-65
2023/03/21 16:47:46;;;;;;;15.32;6.28;;;;;;;12.77;73.83;100150.41;12850933;23;20033;-66
2023/03/21 16:52:47;;;;;;;14.68;6.88;;;;;;;12.88;73.25;100148.00;12855002;23;20024;-65
2023/03/21 16:57:52;;;;;;;14.77;7.13;;;;;;;12.85;73.43;100152.94;12855685;23;20025;-64
2023/03/21 17:02:56;;;;;;;16.45;6.95;;;;;;;12.75;73.57;100147.91;12854513;23;20020;-65
2023/03/21 17:08:00;;;;;;;13.63;7.05;;;;;;;12.68;73.60;100147.84;12864468;23;20035;-65
2023/03/21 17:13:02;;;;;;;17.65;8.85;;;;;;;12.76;73.05;100136.09;12826443;23;20095;-65
2023/03/21 17:18:04;;;;;;;13.50;7.82;;;;;;;12.84;73.06;100132.41;12853126;23;20088;-65
2023/03/21 17:23:06;;;;;;;12.30;6.90;;;;;;;12.84;73.52;100127.03;12862585;23;20302;-63
2023/03/21 17:28:07;;;;;;;18.85;9.55;;;;;;;12.82;73.56;100118.28;12825450;23;20330;-65
2023/03/21 17:33:09;;;;;;;15.13;8.52;;;;;;;12.84;73.63;100116.22;12826308;23;20083;-63
2023/03/21 17:38:16;;;;;;;17.13;7.93;;;;;;;12.86;73.71;100123.09;12802863;23;20307;-65
2023/03/21 17:43:19;;;;;;;18.52;9.65;;;;;;;12.82;73.25;100113.72;12824842;23;20037;-65
2023/03/21 17:48:21;;;;;;;20.45;9.07;;;;;;;12.79;73.69;100124.06;12851856;23;20025;-65
2023/03/21 17:53:22;;;;;;;20.98;8.75;;;;;;;12.72;73.32;100128.56;12850027;23;20025;-65
2023/03/21 17:58:25;;;;;;;19.75;9.30;;;;;;;12.64;73.61;100130.41;12851057;23;20016;-64
2023/03/21 18:03:26;;;;;;;23.20;11.10;;;;;;;12.55;73.28;100136.94;12850031;23;20024;-64
2023/03/21 18:08:27;;;;;;;21.80;10.85;;;;;;;12.52;73.24;100136.50;12848396;23;20024;-63
2023/03/21 18:13:29;;;;;;;20.45;11.13;;;;;;;12.41;73.62;100145.94;12850382;23;20032;-64
2023/03/21 18:18:30;;;;;;;23.40;10.90;;;;;;;12.23;73.67;100149.91;12850244;23;20457;-64
2023/03/21 18:23:31;;;;;;;20.50;11.80;;;;;;;12.07;73.99;100148.31;12848454;23;20059;-64
2023/03/21 18:28:37;;;;;;;30.30;11.88;;;;;;;12.07;74.16;100152.88;12847379;23;20027;-64
2023/03/21 18:33:40;;;;;;;24.17;12.68;;;;;;;12.01;73.89;100157.16;12847990;23;20035;-64
2023/03/21 18:38:42;;;;;;;26.58;12.70;;;;;;;11.88;74.46;100155.09;12848265;23;20023;-62
2023/03/21 18:43:43;;;;;;;22.85;11.75;;;;;;;11.74;74.49;100166.75;12845905;23;20396;-63
2023/03/21 18:49:06;;;;;;;32.67;16.38;;;;;;;11.80;74.15;100157.06;12848009;23;20086;-64
2023/03/21 18:54:27;;;;;;;26.40;12.38;;;;;;;11.79;74.37;100175.09;12847746;23;20025;-64
2023/03/21 18:59:31;;;;;;;29.20;18.45;;;;;;;11.73;74.15;100172.31;12844075;23;20782;-68
2023/03/21 19:04:32;;;;;;;33.10;18.83;;;;;;;11.75;73.80;100163.03;12849299;23;20024;-68
2023/03/21 19:09:35;;;;;;;30.73;17.42;;;;;;;11.76;74.00;100166.56;12819935;23;20029;-69
2023/03/21 19:14:57;;;;;;;35.40;17.20;;;;;;;11.75;74.02;100164.88;12846060;23;20087;-68
2023/03/21 19:19:58;;;;;;;30.52;16.30;;;;;;;11.73;74.49;100151.63;12847002;23;20071;-68
2023/03/21 19:25:00;;;;;;;30.88;16.02;;;;;;;11.75;74.26;100154.09;12846934;23;20024;-69
2023/03/21 19:30:03;;;;;;;32.35;17.98;;;;;;;11.75;74.30;100148.72;12850230;23;20029;-69
2023/03/21 19:35:14;;;;;;;34.55;17.50;;;;;;;11.69;74.70;100147.63;12849363;23;20024;-68
2023/03/21 19:40:18;;;;;;;44.03;16.85;;;;;;;11.69;74.53;100135.00;12849099;23;20531;-69
2023/03/21 19:45:20;;;;;;;34.75;15.40;;;;;;;11.66;74.48;100134.53;12849269;23;20422;-68
2023/03/21 19:50:27;;;;;;;32.20;16.58;;;;;;;11.54;74.96;100157.59;12848878;23;20025;-66
2023/03/21 19:55:50;;;;;;;40.77;18.10;;;;;;;11.49;74.61;100166.19;12846381;23;20131;-67
2023/03/21 20:00:52;;;;;;;43.03;19.05;;;;;;;11.51;74.80;100162.31;12845729;23;20063;-66
2023/03/21 20:06:05;;;;;;;35.17;17.55;;;;;;;11.54;74.56;100154.88;12843680;23;20056;-68
2023/03/21 20:11:06;;;;;;;35.95;16.50;;;;;;;11.46;74.82;100163.91;12836040;23;20024;-68
2023/03/21 20:16:07;;;;;;;30.70;17.92;;;;;;;11.36;74.88;100164.19;12842863;23;20462;-70
2023/03/21 20:21:11;;;;;;;29.75;15.93;;;;;;;11.12;75.62;100167.97;12844126;23;20017;-70
2023/03/21 20:26:18;;;;;;;;;;;;;;;11.13;75.33;100160.72;12824476;23;20085;-68
2023/03/21 20:31:20;;;;;;;33.17;17.00;;;;;;;11.19;75.31;100162.69;12848488;23;19943;-68
2023/03/21 20:36:22;;;;;;;39.33;19.08;;;;;;;11.18;74.75;100159.16;12856885;23;20082;-71
2023/03/21 20:41:40;;;;;;;27.75;15.32;;;;;;;11.11;74.96;100167.13;12864969;23;20025;-70
2023/03/21 20:46:42;;;;;;;28.55;16.33;;;;;;;11.02;75.15;100156.63;12870294;23;20029;-71
2023/03/21 20:51:43;;;;;;;31.25;16.90;;;;;;;10.91;74.84;100144.47;12894278;23;20036;-68
2023/03/21 20:57:05;;;;;;;32.30;16.38;;;;;;;10.86;75.01;100136.97;12889549;23;20366;-71
2023/03/21 21:02:08;;;;;;;35.63;19.17;;;;;;;10.77;74.83;100142.59;12862603;23;20533;-72
2023/03/21 21:07:16;;;;;;;42.08;19.25;;;;;;;10.71;74.73;100142.31;12829668;23;20025;-70
2023/03/21 21:12:17;;;;;;;39.80;19.27;;;;;;;10.66;75.10;100142.03;12866139;23;20032;-70
2023/03/21 21:17:22;;;;;;;41.17;20.38;;;;;;;10.60;75.03;100142.72;12879751;23;20055;-70
2023/03/21 21:22:47;;;;;;;40.50;20.50;;;;;;;10.52;75.21;100137.44;12856856;23;20517;-71
2023/03/21 21:28:01;;;;;;;41.90;20.33;;;;;;;10.48;74.83;100142.31;12957866;22;20088;-69
2023/03/21 21:33:03;;;;;;;40.50;19.88;;;;;;;10.46;74.89;100144.34;13008397;22;20135;-71
2023/03/21 21:38:05;;;;;;;42.83;20.48;;;;;;;10.40;74.96;100141.56;12980278;22;20075;-69
2023/03/21 21:43:06;;;;;;;43.95;20.85;;;;;;;10.31;75.25;100138.13;12982190;22;20676;-69
2023/03/21 21:48:08;;;;;;;45.88;20.27;;;;;;;10.23;75.03;100130.06;12977521;22;20027;-72
2023/03/21 21:53:10;;;;;;;38.83;19.60;;;;;;;10.19;75.20;100126.06;13006567;22;20026;-72
2023/03/21 21:58:12;;;;;;;35.75;17.42;;;;;;;10.12;75.14;100132.16;13002259;22;20031;-71
2023/03/21 22:03:20;;;;;;;32.58;16.77;;;;;;;10.04;75.05;100115.28;13019621;22;20039;-72
2023/03/21 22:08:22;;;;;;;34.78;16.13;;;;;;;9.92;75.02;100123.72;13030559;22;20022;-66
2023/03/21 22:13:23;;;;;;;35.53;16.92;;;;;;;9.80;75.20;100114.41;13033107;22;20436;-67
2023/03/21 22:18:25;;;;;;;41.05;17.42;;;;;;;9.76;75.09;100115.78;13009825;22;20024;-69
2023/03/21 22:23:26;;;;;;;37.30;17.42;;;;;;;9.65;75.27;100108.94;12987303;22;20016;-71
2023/03/21 22:28:29;;;;;;;34.63;16.63;;;;;;;9.64;75.32;100107.28;12979022;22;20448;-71
2023/03/21 22:33:32;;;;;;;63.63;20.83;;;;;;;9.53;75.61;100113.03;12982539;22;20046;-70
2023/03/21 22:38:36;;;;;;;52.65;20.92;;;;;;;9.54;75.47;100112.03;12982203;22;20119;-67
2023/03/21 22:43:38;;;;;;;71.80;22.52;;;;;;;9.52;75.41;100114.06;12916099;22;20011;-68
2023/03/21 22:48:40;;;;;;;60.00;21.83;;;;;;;9.49;75.32;100114.41;12950412;22;20047;-73
2023/03/21 22:53:41;;;;;;;46.10;19.02;;;;;;;9.45;75.36;100119.28;12922590;22;20024;-72
2023/03/21 22:58:43;;;;;;;36.05;17.92;;;;;;;9.39;75.62;100113.78;12929839;23;20028;-72
2023/03/21 23:03:44;;;;;;;33.13;15.88;;;;;;;9.30;75.20;100105.78;12942866;22;20065;-72
2023/03/21 23:08:45;;;;;;;30.40;14.38;;;;;;;9.25;75.27;100108.13;12917329;23;20024;-69
2023/03/21 23:13:47;;;;;;;33.22;15.82;;;;;;;9.17;75.17;100113.53;12951481;23;20027;-70
2023/03/21 23:18:59;;;;;;;33.05;14.50;;;;;;;9.11;75.37;100106.19;12976191;22;20020;-72